Time;durP1;ratioP1;P1;durP2;ratioP2;P2;SDS_P1;SDS_P2;PMS_P1;PMS_P2;Temp;Humidity;BMP_temperature;BMP_pressure;BME280_temperature;BME280_humidity;BME280_pressure;Samples;Min_cycle;Max_cycle;Signal;HPM_P1;HPM_P2
2022/08/14 00:01:03;;;;;;;11.53;4.63;;;18.20;99.90;17.70;100566;;;;567935;249;24084;-84
2022/08/14 00:03:28;;;;;;;6.53;4.30;;;18.20;99.90;17.70;100566;;;;576279;249;24107;-84
2022/08/14 00:05:56;;;;;;;10.27;4.47;;;18.20;99.90;17.70;100557;;;;567962;249;24070;-84
2022/08/14 00:08:27;;;;;;;4.67;3.57;;;18.20;99.90;17.70;100553;;;;564075;249;24108;-84
2022/08/14 00:10:52;;;;;;;9.63;4.37;;;18.20;99.90;17.70;100543;;;;567413;249;24133;-83
2022/08/14 00:13:22;;;;;;;10.23;3.53;;;18.20;99.90;17.70;100545;;;;576100;248;24145;-83
2022/08/14 00:15:52;;;;;;;6.23;3.27;;;18.20;99.90;17.70;100541;;;;567510;249;24167;-83
2022/08/14 00:18:18;;;;;;;8.57;3.60;;;18.20;99.90;17.70;100544;;;;563871;249;24121;-82
2022/08/14 00:20:46;;;;;;;5.50;3.47;;;18.20;99.90;17.70;100551;;;;567576;249;24111;-82
2022/08/14 00:23:14;;;;;;;10.43;5.37;;;18.20;99.90;17.70;100546;;;;562644;249;35329;-82
2022/08/14 00:25:42;;;;;;;7.93;3.90;;;18.30;99.90;17.70;100547;;;;567851;249;24078;-82
2022/08/14 00:28:09;;;;;;;7.77;4.07;;;18.30;99.90;17.70;100545;;;;567807;249;24081;-81
2022/08/14 00:30:37;;;;;;;4.93;3.50;;;18.30;99.90;17.70;100546;;;;567933;249;24081;-81
2022/08/14 00:33:05;;;;;;;4.17;3.50;;;18.20;99.90;17.70;100547;;;;577077;248;24135;-82
2022/08/14 00:35:34;;;;;;;4.57;3.53;;;18.20;99.90;17.70;100550;;;;568720;249;24140;-82
2022/08/14 00:38:01;;;;;;;8.63;3.43;;;18.20;99.90;17.60;100548;;;;577200;248;24104;-83
2022/08/14 00:40:29;;;;;;;9.03;4.40;;;18.20;99.90;17.60;100545;;;;568542;249;23170;-82
2022/08/14 00:42:57;;;;;;;6.93;3.87;;;18.20;99.90;17.60;100548;;;;568680;249;24115;-82
2022/08/14 00:45:25;;;;;;;8.03;3.73;;;18.20;99.90;17.60;100542;;;;576682;248;24090;-82
2022/08/14 00:47:54;;;;;;;4.57;3.27;;;18.10;99.90;17.60;100536;;;;567684;249;24132;-82
2022/08/14 00:50:21;;;;;;;7.27;3.30;;;18.10;99.90;17.60;100535;;;;567569;249;24094;-82
2022/08/14 00:52:51;;;;;;;4.83;3.53;;;18.10;99.90;17.50;100530;;;;576004;248;24098;-82
2022/08/14 00:55:20;;;;;;;4.77;4.23;;;18.10;99.90;17.60;100531;;;;567490;249;24127;-82
2022/08/14 00:58:29;;;;;;;6.50;3.83;;;18.10;99.90;17.60;100530;;;;567387;249;24109;-83
2022/08/14 01:00:13;;;;;;;4.13;3.73;;;18.10;99.90;17.50;100529;;;;574785;249;24084;-82
2022/08/14 01:02:44;;;;;;;8.60;4.57;;;18.10;99.90;17.50;100534;;;;577150;247;24134;-82
2022/08/14 01:05:22;;;;;;;10.03;4.07;;;18.10;99.90;17.50;100531;;;;568174;249;24139;-82
2022/08/14 01:07:38;;;;;;;4.53;3.90;;;18.10;99.90;17.50;100534;;;;568086;249;24116;-82
2022/08/14 01:10:09;;;;;;;8.53;4.07;;;18.00;99.90;17.50;100528;;;;568118;249;24116;-82
2022/08/14 01:12:34;;;;;;;6.03;3.80;;;18.00;99.90;17.50;100520;;;;568038;249;24139;-83
2022/08/14 01:15:05;;;;;;;7.63;4.10;;;18.00;99.90;17.50;100527;;;;567992;249;24095;-82
2022/08/14 01:23:04;;;;;;;3.50;3.30;;;18.00;99.90;17.50;100518;;;;576275;248;24150;-82
2022/08/14 01:25:31;;;;;;;9.73;3.90;;;18.00;99.90;17.40;100511;;;;567856;249;24093;-82
2022/08/14 01:27:59;;;;;;;5.13;4.03;;;18.00;99.90;17.40;100521;;;;567973;249;24135;-81
2022/08/14 01:30:30;;;;;;;5.73;4.13;;;17.90;99.90;17.50;100515;;;;567944;249;24128;-82
2022/08/14 01:32:58;;;;;;;10.50;4.00;;;18.00;99.90;17.50;100517;;;;567211;249;24105;-82
2022/08/14 01:35:27;;;;;;;7.77;3.80;;;18.00;99.90;17.50;100518;;;;567398;249;24079;-82
2022/08/14 01:37:51;;;;;;;11.37;4.60;;;18.00;99.90;17.50;100518;;;;567619;249;24085;-82
2022/08/14 01:40:20;;;;;;;5.53;3.90;;;18.00;99.90;17.50;100520;;;;567352;249;24116;-82
2022/08/14 01:42:48;;;;;;;7.10;3.80;;;18.00;99.90;17.50;100518;;;;567069;249;24175;-82
2022/08/14 01:45:16;;;;;;;11.33;4.40;;;18.00;99.90;17.50;100510;;;;567428;249;24081;-83
2022/08/14 01:47:43;;;;;;;5.63;3.60;;;17.90;99.90;17.50;100512;;;;567424;249;24167;-82
2022/08/14 01:50:12;;;;;;;5.20;3.93;;;18.00;99.90;17.50;100515;;;;567454;249;24145;-83
2022/08/14 01:52:42;;;;;;;7.17;3.80;;;18.00;99.90;17.50;100518;;;;567505;249;24127;-83
2022/08/14 01:55:11;;;;;;;9.07;4.40;;;18.00;99.90;17.40;100512;;;;567751;249;24150;-83
2022/08/14 01:57:39;;;;;;;19.43;4.23;;;18.00;99.90;17.40;100512;;;;567428;249;24087;-83
2022/08/14 02:00:04;;;;;;;7.83;4.60;;;17.90;99.90;17.40;100508;;;;575779;248;24118;-83
2022/08/14 02:02:33;;;;;;;9.73;4.27;;;17.90;99.90;17.40;100517;;;;568368;248;24076;-83
2022/08/14 02:05:00;;;;;;;4.23;3.77;;;17.90;99.90;17.40;100511;;;;577082;248;24187;-82
2022/08/14 02:07:31;;;;;;;5.80;4.07;;;17.90;99.90;17.40;100505;;;;566905;253;24161;-82
2022/08/14 02:09:56;;;;;;;5.33;3.40;;;17.90;99.90;17.30;100506;;;;556754;253;24100;-82
2022/08/14 02:12:23;;;;;;;6.33;3.83;;;17.90;99.90;17.30;100512;;;;556575;253;24118;-82
2022/08/14 02:14:51;;;;;;;10.70;3.90;;;17.80;99.90;17.30;100509;;;;578582;247;24095;-82
2022/08/14 02:17:22;;;;;;;7.87;3.83;;;17.80;99.90;17.20;100505;;;;577981;247;24111;-82
2022/08/14 02:19:47;;;;;;;8.03;3.53;;;17.80;99.90;17.20;100499;;;;577950;247;24145;-82
2022/08/14 02:22:18;;;;;;;4.13;3.73;;;17.70;99.90;17.20;100503;;;;577843;247;24084;-82
2022/08/14 02:24:43;;;;;;;6.40;3.83;;;17.70;99.90;17.20;100510;;;;569000;248;24130;-83
2022/08/14 02:27:15;;;;;;;6.30;4.00;;;17.70;99.90;17.20;100513;;;;578168;248;24115;-83
2022/08/14 02:29:42;;;;;;;8.93;4.10;;;17.70;99.90;17.20;100504;;;;566752;248;24080;-83
2022/08/14 02:32:09;;;;;;;9.20;4.73;;;17.70;99.90;17.10;100500;;;;566371;253;24199;-83
2022/08/14 02:34:38;;;;;;;9.97;4.27;;;17.70;99.90;17.10;100502;;;;558234;253;24189;-82
2022/08/14 02:37:04;;;;;;;7.43;4.17;;;17.60;99.90;17.10;100503;;;;568930;248;24113;-82
2022/08/14 02:39:35;;;;;;;7.60;4.57;;;17.60;99.90;17.10;100490;;;;566665;252;24159;-83
2022/08/14 02:42:00;;;;;;;10.47;3.80;;;17.60;99.90;17.10;100485;;;;552944;253;24209;-82
2022/08/14 02:44:28;;;;;;;10.30;4.30;;;17.60;99.90;17.10;100485;;;;569802;248;24119;-82
2022/08/14 02:46:59;;;;;;;10.73;3.87;;;17.50;99.90;17.00;100482;;;;558483;253;24127;-83
2022/08/14 02:49:27;;;;;;;11.63;4.23;;;17.50;99.90;17.00;100482;;;;566594;253;24120;-82
2022/08/14 02:51:56;;;;;;;4.73;4.00;;;17.50;99.90;17.00;100488;;;;556559;253;24108;-82
2022/08/14 02:54:27;;;;;;;7.30;4.17;;;17.50;99.90;16.90;100486;;;;570239;251;24087;-83
2022/08/14 02:56:53;;;;;;;9.63;4.03;;;17.50;99.90;16.90;100483;;;;559540;251;24093;-83
2022/08/14 02:59:20;;;;;;;11.23;4.20;;;17.40;99.90;16.90;100477;;;;568733;248;24083;-83
2022/08/14 03:01:52;;;;;;;6.53;4.03;;;17.40;99.90;16.90;100480;;;;577292;248;24115;-83
2022/08/14 03:04:18;;;;;;;5.63;4.50;;;17.40;99.90;16.90;100476;;;;588865;237;24049;-78
2022/08/14 03:06:48;;;;;;;6.40;4.00;;;17.40;99.90;16.90;100481;;;;593198;241;24070;-77
2022/08/14 03:09:17;;;;;;;7.87;4.40;;;17.40;99.90;16.90;100476;;;;592377;241;24157;-77
2022/08/14 03:11:43;;;;;;;7.17;4.07;;;17.40;99.90;17.00;100475;;;;583445;241;24079;-76
2022/08/14 03:14:10;;;;;;;4.60;4.23;;;17.50;99.90;17.00;100476;;;;584083;242;24049;-78
2022/08/14 03:16:41;;;;;;;8.67;4.67;;;17.50;99.90;17.00;100476;;;;583793;241;24061;-77
2022/08/14 03:19:09;;;;;;;6.33;4.40;;;17.50;99.90;17.00;100472;;;;586618;240;24035;-77
2022/08/14 03:21:38;;;;;;;10.13;4.30;;;17.50;99.90;17.00;100474;;;;594895;237;24020;-77
2022/08/14 03:24:10;;;;;;;9.60;4.37;;;17.50;99.90;17.00;100473;;;;584227;239;24095;-78
2022/08/14 03:26:41;;;;;;;4.83;4.43;;;17.50;99.90;17.00;100472;;;;591282;238;24013;-80
2022/08/14 03:29:10;;;;;;;6.50;4.60;;;17.50;99.90;17.10;100468;;;;594596;241;24065;-78
2022/08/14 03:31:39;;;;;;;5.03;4.63;;;17.50;99.90;17.10;100470;;;;585427;242;24198;-79
2022/08/14 03:34:05;;;;;;;10.93;5.00;;;17.60;99.90;17.10;100474;;;;582922;242;24153;-80
2022/08/14 03:36:33;;;;;;;9.80;4.90;;;17.60;99.90;17.20;100475;;;;583082;241;24096;-82
2022/08/14 03:39:02;;;;;;;6.53;4.77;;;17.60;99.90;17.20;100466;;;;583101;242;24067;-79
2022/08/14 03:41:29;;;;;;;9.50;5.47;;;17.70;99.90;17.20;100460;;;;583214;242;24070;-79
2022/08/14 03:43:56;;;;;;;8.83;5.00;;;17.70;99.90;17.20;100464;;;;589094;242;24075;-81
2022/08/14 03:46:26;;;;;;;9.37;4.90;;;17.80;99.90;17.30;100468;;;;581633;242;24093;-79
2022/08/14 03:48:56;;;;;;;8.13;5.23;;;17.70;99.90;17.30;100471;;;;582654;242;24097;-78
2022/08/14 03:51:30;;;;;;;14.77;5.70;;;17.80;99.90;17.40;100472;;;;583871;242;24118;-82
2022/08/14 03:53:57;;;;;;;9.87;5.73;;;17.90;99.90;17.50;100469;;;;594262;237;25249;-82
2022/08/14 03:56:26;;;;;;;9.57;5.70;;;17.90;99.90;17.60;100482;;;;602970;237;24077;-82
2022/08/14 03:58:54;;;;;;;7.57;6.13;;;18.00;99.90;17.60;100476;;;;593451;237;24080;-83
2022/08/14 04:01:22;;;;;;;8.33;5.80;;;18.10;99.90;17.70;100474;;;;598335;237;24044;-80
2022/08/14 04:03:52;;;;;;;12.87;6.07;;;18.20;99.90;17.70;100473;;;;582570;243;24095;-78
2022/08/14 04:06:21;;;;;;;14.57;6.43;;;18.30;99.90;17.80;100471;;;;584403;242;24042;-80
2022/08/14 04:08:49;;;;;;;10.77;6.07;;;18.20;99.90;17.90;100472;;;;593963;238;24110;-82
2022/08/14 04:11:17;;;;;;;9.17;5.47;;;18.30;99.90;17.90;100467;;;;581587;243;24089;-82
2022/08/14 04:13:45;;;;;;;17.47;6.60;;;18.40;99.90;18.00;100465;;;;583674;242;24132;-78
2022/08/14 04:16:16;;;;;;;6.57;5.97;;;18.50;99.90;18.10;100465;;;;582579;243;24084;-81
2022/08/14 04:18:44;;;;;;;12.70;7.33;;;18.50;99.90;18.10;100464;;;;582362;243;24045;-79
2022/08/14 04:21:14;;;;;;;9.53;6.33;;;18.60;99.90;18.20;100462;;;;592388;239;24079;-79
2022/08/14 04:23:42;;;;;;;10.50;6.47;;;18.60;99.90;18.30;100464;;;;588773;237;24025;-78
2022/08/14 04:26:10;;;;;;;7.73;6.90;;;18.70;99.90;18.90;100453;;;;585694;244;24062;-80
2022/08/14 04:28:38;;;;;;;9.60;7.30;;;19.20;99.90;20.00;100469;;;;589478;241;24045;-80
2022/08/14 04:31:05;;;;;;;7.97;7.17;;;20.30;99.90;21.30;100460;;;;577625;246;24085;-80
2022/08/14 04:33:36;;;;;;;13.47;6.70;;;21.60;99.90;22.50;100468;;;;584052;242;23091;-80
2022/08/14 04:36:01;;;;;;;8.23;4.80;;;23.00;99.90;23.70;100467;;;;579013;245;24194;-81
2022/08/14 04:44:01;;;;;;;7.40;3.53;;;27.70;99.90;28.00;100469;;;;584524;241;23055;-77
2022/08/14 04:46:29;;;;;;;7.97;3.90;;;28.80;99.90;28.70;100460;;;;583589;242;24138;-78
2022/08/14 04:48:57;;;;;;;11.87;4.47;;;29.60;99.90;29.40;100451;;;;577766;247;23124;-76
2022/08/14 04:51:26;;;;;;;7.60;3.67;;;30.40;99.90;30.10;100443;;;;578253;247;23113;-77
2022/08/14 04:53:53;;;;;;;6.15;3.60;;;30.80;99.90;30.60;100445;;;;578225;246;23094;-77
2022/08/14 04:56:22;;;;;;;5.47;3.67;;;32.10;99.90;31.20;100450;;;;583410;241;23049;-79
2022/08/14 04:58:51;;;;;;;4.30;3.53;;;32.60;99.90;31.80;100443;;;;584372;242;24079;-79
2022/08/14 05:01:19;;;;;;;10.57;3.67;;;32.60;99.90;32.30;100438;;;;593480;242;24063;-78
2022/08/14 05:03:46;;;;;;;9.65;3.47;;;33.00;99.00;32.80;100444;;;;576745;247;23091;-78
2022/08/14 05:06:18;;;;;;;5.55;3.65;;;34.20;93.20;33.50;100442;;;;582946;242;23131;-78
2022/08/14 05:08:43;;;;;;;6.95;3.78;;;34.20;93.20;33.80;100441;;;;584122;241;24142;-79
2022/08/14 05:11:11;;;;;;;4.43;3.47;;;34.60;91.30;34.40;100452;;;;571554;242;23058;-79
2022/08/14 05:13:42;;;;;;;10.73;3.00;;;35.60;84.60;34.80;100454;;;;592879;241;23088;-80
2022/08/14 05:16:08;;;;;;;6.07;3.50;;;35.50;84.50;35.20;100458;;;;590298;237;23040;-85
2022/08/14 05:18:36;;;;;;;4.82;3.20;;;36.00;81.10;35.60;100456;;;;591488;239;23077;-79
2022/08/14 05:21:03;;;;;;;4.30;3.40;;;36.40;78.00;36.00;100465;;;;582212;243;23079;-81
2022/08/14 05:23:31;;;;;;;10.45;4.40;;;36.80;75.70;36.30;100465;;;;582509;243;23097;-82
2022/08/14 05:26:02;;;;;;;8.95;4.97;;;37.10;73.20;36.70;100465;;;;580624;242;23111;-79
2022/08/14 05:28:30;;;;;;;10.82;5.28;;;37.50;70.30;36.90;100464;;;;582722;243;23124;-79
2022/08/14 05:30:58;;;;;;;9.48;4.75;;;37.60;68.70;37.00;100467;;;;582821;242;24094;-80
2022/08/14 05:33:27;;;;;;;13.27;5.20;;;37.70;67.70;37.40;100463;;;;582337;242;23093;-80
2022/08/14 05:35:59;;;;;;;6.35;5.25;;;38.00;66.50;37.90;100469;;;;580246;243;23085;-83
2022/08/14 05:38:21;;;;;;;12.68;5.07;;;38.40;65.00;38.30;100470;;;;580472;247;23099;-87
2022/08/14 05:40:49;;;;;;;12.95;5.20;;;38.80;62.90;38.50;100474;;;;583713;241;23076;-88
2022/08/14 05:43:18;;;;;;;8.65;4.85;;;39.10;60.90;38.70;100475;;;;592771;241;23177;-86
2022/08/14 05:45:47;;;;;;;6.68;4.93;;;39.30;60.20;39.20;100478;;;;592680;241;23063;-87
2022/08/14 05:48:17;;;;;;;9.68;4.93;;;39.70;59.20;39.60;100472;;;;581925;245;23113;-89
2022/08/14 05:50:41;;;;;;;5.75;5.15;;;40.20;58.10;39.80;100482;;;;574559;246;23109;-85
2022/08/14 05:53:12;;;;;;;6.70;4.78;;;40.50;56.60;39.80;100477;;;;573092;247;24151;-86
2022/08/14 05:55:40;;;;;;;6.80;4.60;;;40.80;55.50;40.10;100477;;;;593781;237;23047;-83
2022/08/14 05:58:06;;;;;;;9.13;4.20;;;40.70;54.80;40.00;100481;;;;581506;242;23089;-86
2022/08/14 06:00:38;;;;;;;11.80;4.68;;;40.80;54.60;40.20;100476;;;;594868;237;23039;-86
2022/08/14 06:03:06;;;;;;;7.47;4.95;;;40.80;54.60;40.30;100474;;;;576396;240;23057;-84
2022/08/14 06:05:33;;;;;;;9.88;4.60;;;41.00;54.30;40.50;100475;;;;587215;240;23092;-84
2022/08/14 06:08:01;;;;;;;10.48;4.82;;;41.20;53.70;40.20;100476;;;;584723;240;23035;-85
2022/08/14 06:10:30;;;;;;;8.73;4.30;;;41.30;53.10;40.50;100476;;;;587182;239;23127;-86
2022/08/14 06:13:02;;;;;;;8.27;5.00;;;41.20;53.40;41.10;100474;;;;579376;242;35271;-84
2022/08/14 06:15:26;;;;;;;11.20;4.68;;;41.50;52.30;41.40;100474;;;;572782;246;23246;-83
2022/08/14 06:17:58;;;;;;;12.85;4.95;;;42.50;51.10;42.20;100467;;;;587520;241;23108;-86
2022/08/14 06:20:26;;;;;;;7.87;4.53;;;43.00;50.60;42.70;100477;;;;584746;239;23026;-87
2022/08/14 06:22:54;;;;;;;7.43;4.43;;;42.90;50.20;43.30;100483;;;;583268;240;24090;-87
2022/08/14 06:25:22;;;;;;;7.35;4.28;;;43.50;49.20;43.80;100477;;;;589685;240;23045;-84
2022/08/14 06:27:50;;;;;;;6.68;4.03;;;44.10;48.50;44.40;100481;;;;587379;240;23083;-87
2022/08/14 06:30:18;;;;;;;13.10;4.53;;;44.50;48.00;45.00;100482;;;;585540;240;23084;-88
2022/08/14 06:32:47;;;;;;;12.48;4.72;;;45.20;47.30;44.80;100486;;;;577703;247;23103;-86
2022/08/14 06:35:18;;;;;;;6.40;3.85;;;45.30;45.20;44.50;100486;;;;585377;241;23030;-88
2022/08/14 06:37:47;;;;;;;6.87;3.67;;;45.40;46.00;44.90;100483;;;;588615;242;23090;-89
2022/08/14 06:40:20;;;;;;;8.30;3.47;;;45.30;45.90;45.40;100485;;;;590986;235;23018;-90
2022/08/14 06:42:52;;;;;;;5.43;3.37;;;46.00;45.30;45.80;100485;;;;571908;245;23144;-85
2022/08/14 06:45:17;;;;;;;10.63;3.37;;;46.30;44.50;46.10;100492;;;;582459;241;23134;-84
2022/08/14 06:47:46;;;;;;;5.32;3.58;;;46.40;43.40;46.00;100489;;;;597946;237;23013;-86
2022/08/14 06:50:15;;;;;;;6.22;3.55;;;46.40;43.70;45.90;100481;;;;600804;235;23062;-83
2022/08/14 06:52:43;;;;;;;8.15;3.47;;;46.30;43.00;46.00;100480;;;;602034;235;23271;-85
2022/08/14 06:55:11;;;;;;;4.53;3.87;;;46.40;44.20;46.20;100478;;;;601971;235;23009;-84
2022/08/14 07:35:08;;;;;;;4.47;3.30;;;47.10;40.70;46.60;100479;;;;617410;228;32063;-78
2022/08/14 07:37:33;;;;;;;10.07;3.28;;;47.10;41.00;46.60;100475;;;;590623;238;23026;-82
2022/08/14 07:40:04;;;;;;;4.65;3.08;;;46.90;41.30;47.00;100468;;;;589454;239;23046;-82
2022/08/14 07:42:31;;;;;;;3.55;2.90;;;47.40;40.40;47.40;100474;;;;588839;239;23106;-83
2022/08/14 07:44:58;;;;;;;8.65;3.15;;;47.50;40.70;47.50;100476;;;;589105;239;23058;-82
2022/08/14 07:47:26;;;;;;;6.50;3.17;;;47.60;40.80;47.60;100473;;;;598477;239;24055;-82
2022/08/14 07:50:15;;;;;;;4.37;3.35;;;47.90;40.00;47.60;100467;;;;598448;239;23082;-81
2022/08/14 07:52:43;;;;;;;5.37;2.97;;;47.90;40.50;47.90;100472;;;;587339;240;24092;-82
2022/08/14 07:55:11;;;;;;;4.15;2.87;;;48.10;40.30;48.00;100477;;;;588935;240;23069;-81
2022/08/14 07:57:42;;;;;;;7.30;3.55;;;48.00;40.10;48.00;100472;;;;588948;240;23062;-82
2022/08/14 08:00:13;;;;;;;8.82;3.40;;;48.10;40.10;47.60;100473;;;;588653;240;23072;-81
2022/08/14 08:02:41;;;;;;;7.45;2.97;;;48.00;39.90;47.50;100474;;;;588731;240;23095;-82
2022/08/14 08:05:09;;;;;;;7.35;3.15;;;47.90;40.20;48.00;100476;;;;583620;240;45836;-82
2022/08/14 08:07:37;;;;;;;5.95;3.00;;;48.10;39.80;48.40;100473;;;;588910;240;23050;-83
2022/08/14 08:12:56;;;;;;;7.25;3.03;;;48.50;38.90;48.50;100474;;;;588746;240;23061;-83
2022/08/14 08:15:27;;;;;;;4.05;2.60;;;48.70;38.60;48.40;100473;;;;588608;240;23032;-82
2022/08/14 08:17:55;;;;;;;3.35;2.78;;;48.70;38.90;48.80;100475;;;;588821;240;23040;-83
2022/08/14 08:20:24;;;;;;;3.95;2.47;;;49.00;38.90;49.10;100468;;;;591242;240;23024;-81
2022/08/14 08:22:51;;;;;;;4.62;2.78;;;49.30;38.40;49.30;100467;;;;588616;240;23072;-82
2022/08/14 08:25:18;;;;;;;2.95;2.65;;;49.40;38.00;49.20;100467;;;;597861;240;23031;-81
2022/08/14 08:28:02;;;;;;;7.00;2.95;;;49.50;37.90;49.30;100468;;;;588733;240;23064;-80
2022/08/14 08:30:30;;;;;;;4.68;2.83;;;49.50;37.90;48.70;100466;;;;588394;240;23081;-81
2022/08/14 08:33:00;;;;;;;2.83;2.55;;;49.10;37.30;48.00;100461;;;;578253;244;23098;-81
2022/08/14 08:35:27;;;;;;;4.05;2.40;;;49.10;37.30;47.40;100469;;;;577579;244;23104;-81
2022/08/14 08:37:55;;;;;;;5.78;2.72;;;48.70;36.80;46.80;100471;;;;577471;244;23150;-84
2022/08/14 08:40:29;;;;;;;5.47;2.90;;;48.20;37.00;46.40;100473;;;;577534;244;23075;-83
2022/08/14 08:42:57;;;;;;;5.18;3.03;;;47.10;37.90;45.40;100476;;;;574583;244;23108;-81
2022/08/14 08:45:26;;;;;;;3.73;2.80;;;46.60;38.50;45.40;100468;;;;573446;244;45977;-82
2022/08/14 08:47:54;;;;;;;3.90;2.85;;;46.60;38.50;45.00;100466;;;;578820;244;24089;-83
2022/08/14 08:50:22;;;;;;;3.70;2.55;;;46.30;38.40;44.50;100465;;;;578429;244;23056;-82
2022/08/14 08:52:52;;;;;;;7.07;2.65;;;46.00;38.80;44.20;100472;;;;578100;244;23119;-82
2022/08/14 08:55:32;;;;;;;3.87;2.40;;;45.60;39.40;43.80;100465;;;;578073;244;23116;-80
2022/08/14 08:58:00;;;;;;;4.50;2.50;;;45.30;39.30;43.40;100462;;;;577897;244;23114;-83
2022/08/14 09:00:32;;;;;;;4.55;2.05;;;44.90;39.60;43.40;100465;;;;577936;244;23095;-81
2022/08/14 09:02:58;;;;;;;5.40;2.55;;;44.80;39.80;43.50;100458;;;;578167;244;23072;-82
2022/08/14 09:05:25;;;;;;;2.83;2.47;;;44.80;39.80;43.60;100468;;;;577718;244;23074;-82
2022/08/14 09:07:53;;;;;;;5.43;2.25;;;45.00;39.60;43.60;100465;;;;577698;244;23101;-82
2022/08/14 09:10:22;;;;;;;5.87;3.72;;;45.00;39.60;43.40;100447;;;;577911;244;23122;-82
2022/08/14 09:12:50;;;;;;;4.60;2.85;;;44.80;39.60;42.90;100450;;;;577901;243;24112;-82
2022/08/14 09:15:17;;;;;;;6.20;2.40;;;44.60;39.60;42.50;100447;;;;577942;243;23068;-82
2022/08/14 09:17:45;;;;;;;5.87;2.85;;;44.30;39.90;42.70;100449;;;;577907;244;23072;-82
2022/08/14 09:20:13;;;;;;;4.20;2.22;;;44.20;39.60;42.80;100443;;;;578261;244;23056;-81
2022/08/14 09:22:44;;;;;;;3.85;2.40;;;44.20;40.10;43.00;100448;;;;577591;244;23179;-81
2022/08/14 09:25:09;;;;;;;5.32;2.30;;;44.50;39.70;43.00;100441;;;;577335;244;23136;-81
2022/08/14 09:27:37;;;;;;;4.55;2.40;;;44.70;40.30;43.40;100430;;;;577610;244;23088;-82
2022/08/14 09:30:10;;;;;;;5.18;2.67;;;44.80;39.60;43.10;100424;;;;577968;244;23063;-80
2022/08/14 09:32:50;;;;;;;3.90;2.40;;;44.80;39.60;43.20;100435;;;;577251;244;23143;-82
2022/08/14 09:35:20;;;;;;;3.10;2.40;;;44.90;39.60;43.30;100429;;;;573698;244;23114;-81
2022/08/14 09:37:57;;;;;;;6.35;2.45;;;44.80;39.80;43.00;100418;;;;577144;244;23090;-81
2022/08/14 09:40:40;;;;;;;6.47;2.58;;;44.70;39.80;42.60;100419;;;;577048;244;23106;-81
2022/08/14 09:43:14;;;;;;;2.60;2.20;;;44.50;39.60;42.20;100405;;;;586363;244;23086;-81
2022/08/14 09:45:47;;;;;;;6.78;2.28;;;44.10;40.20;42.40;100400;;;;577117;244;23108;-82
2022/08/14 09:48:22;;;;;;;3.00;1.90;;;44.10;40.50;42.60;100403;;;;577524;244;23141;-82
2022/08/14 09:50:46;;;;;;;3.72;3.17;;;44.20;40.40;41.90;100406;;;;577055;244;23133;-83
2022/08/14 09:53:14;;;;;;;4.35;2.85;;;43.90;40.10;41.60;100406;;;;577479;244;23373;-84
2022/08/14 09:55:42;;;;;;;8.02;2.58;;;43.60;40.80;41.70;100402;;;;576223;244;24134;-84
2022/08/14 09:58:16;;;;;;;8.13;2.25;;;43.50;41.30;41.50;100393;;;;579346;244;23141;-82
2022/08/14 10:00:53;;;;;;;5.95;2.20;;;43.50;41.30;41.70;100397;;;;578398;244;23063;-81
2022/08/14 10:03:33;;;;;;;4.80;2.25;;;43.40;41.40;42.00;100403;;;;577890;244;23114;-83
2022/08/14 10:06:10;;;;;;;12.32;2.50;;;43.60;41.40;41.70;100397;;;;581617;244;23202;-82
2022/08/14 10:08:41;;;;;;;5.62;3.10;;;43.60;41.60;41.60;100399;;;;578336;244;23089;-81
2022/08/14 10:11:18;;;;;;;3.78;2.20;;;43.50;42.00;42.00;100399;;;;578468;244;23083;-81
2022/08/14 10:13:43;;;;;;;6.25;2.72;;;43.80;41.70;42.30;100400;;;;578259;244;23107;-82
2022/08/14 10:16:13;;;;;;;4.93;2.50;;;43.80;41.70;41.90;100384;;;;578107;244;23114;-83
2022/08/14 10:18:39;;;;;;;5.78;2.35;;;43.60;42.40;41.20;100392;;;;578554;243;23085;-81
2022/08/14 10:21:07;;;;;;;4.10;2.47;;;42.90;42.00;40.80;100388;;;;578633;244;23059;-83
2022/08/14 10:23:38;;;;;;;7.28;2.53;;;42.40;42.60;40.10;100383;;;;578094;244;23120;-81
2022/08/14 10:26:06;;;;;;;4.35;2.65;;;41.90;43.80;39.20;100371;;;;577664;244;26272;-81
2022/08/14 10:28:44;;;;;;;6.37;2.58;;;40.10;45.30;38.10;100364;;;;577696;244;23152;-81
2022/08/14 10:31:28;;;;;;;3.72;2.67;;;40.00;45.20;37.20;100361;;;;577996;244;23134;-80
2022/08/14 10:34:09;;;;;;;6.22;3.60;;;39.20;46.20;36.70;100365;;;;577881;244;23082;-80
2022/08/14 10:36:41;;;;;;;6.62;2.80;;;37.90;47.90;36.30;100356;;;;577537;244;23156;-80
2022/08/14 10:39:15;;;;;;;3.60;2.67;;;37.70;49.30;36.20;100350;;;;577501;244;23086;-80
2022/08/14 10:41:43;;;;;;;3.08;2.78;;;37.60;48.70;35.50;100350;;;;577466;244;23113;-82
2022/08/14 10:44:15;;;;;;;6.20;3.05;;;37.20;49.70;34.80;100352;;;;577783;244;23085;-82
2022/08/14 10:46:48;;;;;;;5.10;2.87;;;35.50;52.70;33.90;100354;;;;573925;244;23085;-80
2022/08/14 10:49:22;;;;;;;3.78;2.90;;;35.30;52.60;32.90;100351;;;;576883;244;23155;-81
2022/08/14 10:52:05;;;;;;;3.40;2.60;;;34.30;54.40;32.00;100358;;;;574450;244;23079;-80
2022/08/14 10:54:30;;;;;;;6.00;2.92;;;33.20;56.80;30.90;100360;;;;577552;242;23157;-80
2022/08/14 10:57:15;;;;;;;4.12;2.33;;;32.20;58.60;30.30;100350;;;;577270;244;23115;-80
2022/08/14 10:59:48;;;;;;;4.47;2.80;;;31.30;61.50;29.90;100354;;;;577329;244;23141;-81
2022/08/14 11:02:19;;;;;;;3.03;2.83;;;30.60;63.50;29.60;100349;;;;586216;244;23095;-81
2022/08/14 11:04:46;;;;;;;7.17;2.77;;;30.10;65.10;29.10;100344;;;;577367;244;23086;-80
2022/08/14 11:07:16;;;;;;;5.07;2.90;;;29.70;66.20;28.60;100335;;;;573226;244;24074;-81
2022/08/14 11:09:53;;;;;;;2.90;2.70;;;29.20;67.40;28.00;100339;;;;579219;244;23178;-80
2022/08/14 11:12:21;;;;;;;3.60;2.63;;;28.80;67.30;27.60;100332;;;;576276;244;23081;-84
2022/08/14 11:14:58;;;;;;;4.33;2.80;;;28.30;70.30;27.40;100337;;;;578408;244;23067;-79
2022/08/14 11:17:24;;;;;;;5.40;2.80;;;28.00;72.30;27.30;100334;;;;577968;244;24054;-79
2022/08/14 11:19:50;;;;;;;3.17;2.63;;;27.80;74.00;27.10;100332;;;;578118;244;23078;-79
2022/08/14 11:22:19;;;;;;;4.77;2.80;;;27.60;75.70;27.10;100323;;;;577992;244;24116;-80
2022/08/14 11:24:48;;;;;;;5.23;3.20;;;27.40;76.20;27.00;100330;;;;578078;244;23072;-80
2022/08/14 11:27:15;;;;;;;7.20;2.83;;;27.40;75.70;26.80;100335;;;;577770;244;23086;-80
2022/08/14 11:29:46;;;;;;;8.63;2.63;;;27.30;76.70;26.70;100317;;;;578132;244;23095;-80
2022/08/14 11:32:11;;;;;;;6.20;3.23;;;27.20;78.10;26.60;100308;;;;582423;243;23173;-82
2022/08/14 11:34:40;;;;;;;4.17;2.90;;;27.00;78.70;26.40;100313;;;;575345;244;23092;-79
2022/08/14 11:37:10;;;;;;;5.90;2.47;;;26.90;79.40;26.30;100302;;;;577856;243;23092;-80
2022/08/14 11:39:38;;;;;;;3.43;3.17;;;26.80;80.20;26.20;100307;;;;577745;244;23066;-81
2022/08/14 11:42:06;;;;;;;3.90;2.53;;;26.70;81.00;26.20;100304;;;;577645;244;23069;-81
2022/08/14 11:44:34;;;;;;;7.30;3.10;;;26.60;81.40;26.10;100310;;;;577468;244;24122;-81
2022/08/14 11:47:02;;;;;;;2.90;2.70;;;26.60;81.90;26.00;100315;;;;577444;244;23075;-81
2022/08/14 11:49:30;;;;;;;5.53;2.90;;;26.50;82.50;26.00;100302;;;;586333;244;24098;-80
2022/08/14 11:51:58;;;;;;;3.53;2.50;;;26.40;82.90;25.90;100314;;;;577568;243;23092;-80
2022/08/14 11:54:25;;;;;;;4.47;3.00;;;26.40;83.50;25.90;100300;;;;577709;244;23150;-81
2022/08/14 11:56:53;;;;;;;4.17;3.03;;;26.30;84.30;25.80;100295;;;;577608;244;23090;-81
2022/08/14 11:59:21;;;;;;;2.90;2.57;;;26.20;84.80;25.70;100293;;;;577435;244;24126;-81
2022/08/14 12:01:50;;;;;;;6.20;2.70;;;26.10;86.50;25.60;100292;;;;577607;244;24061;-81
2022/08/14 12:04:18;;;;;;;4.03;2.80;;;26.10;86.50;25.60;100282;;;;577420;244;24179;-80
2022/08/14 12:06:51;;;;;;;2.83;2.63;;;26.10;87.20;25.60;100279;;;;565886;249;23135;-81